KGED/GED METAR and TAF weather

Enter ICAO airport designator
Station Type Date Time Source
KGED METAR 2019/06/27 07:54 UTC NOAA

KGED 270754Z AUTO 00000KT 10SM CLR 23/21 A3009 RMK AO2 SLP189 T02330206 $


Station Type Date Time Source
KGED Decoded METAR 2019/06/27 07:54 UTC NOAA

GEORGETOWN SUSSEX CO AIRPORT , DE, United States (KGED) 38-41N 075-22W 19M
Jun 27, 2019 - 03:54 AM EDT / 2019.06.27 0754 UTC
Wind: Calm:0
Visibility: 10 mile(s):0
Sky conditions: clear
Temperature: 73.9 F (23.3 C)
Dew Point: 69.1 F (20.6 C)
Relative Humidity: 84%
Pressure (altimeter): 30.09 in. Hg (1018 hPa)
ob: KGED 270754Z AUTO 00000KT 10SM CLR 23/21 A3009 RMK AO2 SLP189 T02330206
cycle: 8

Station Type Date Time Source
KGED TAF UTC NOAA

Error!

Example: see airport list